Time;durP1;ratioP1;P1;durP2;ratioP2;P2;SDS_P1;SDS_P2;PMS_P1;PMS_P2;Temp;Humidity;BMP_temperature;BMP_pressure;BME280_temperature;BME280_humidity;BME280_pressure;Samples;Min_cycle;Max_cycle;Signal;HPM_P1;HPM_P2
2022/07/08 00:01:29;;;;;;;11.63;3.63;;;;;;;13.66;100.00;101982.72;5017051;28;20490;-67
2022/07/08 00:03:55;;;;;;;7.88;3.42;;;;;;;13.68;100.00;101980.91;5042670;28;20033;-67
2022/07/08 00:06:20;;;;;;;9.30;3.88;;;;;;;13.67;100.00;101983.59;5031607;28;20038;-67
2022/07/08 00:08:46;;;;;;;9.50;3.67;;;;;;;13.73;100.00;101986.00;5019569;28;20466;-67
2022/07/08 00:11:11;;;;;;;21.40;3.78;;;;;;;13.57;100.00;101958.44;5031838;28;20031;-66
2022/07/08 00:13:37;;;;;;;19.08;3.72;;;;;;;13.66;100.00;101982.72;5032220;28;20455;-67
2022/07/08 00:16:02;;;;;;;5.85;3.10;;;;;;;13.56;100.00;101980.47;5033574;28;20018;-67
2022/07/08 00:18:28;;;;;;;10.40;3.95;;;;;;;13.54;100.00;101982.31;5030314;28;20116;-67
2022/07/08 00:20:53;;;;;;;12.63;3.47;;;;;;;13.45;100.00;101985.31;5053269;28;20025;-67
2022/07/08 00:23:19;;;;;;;12.85;4.10;;;;;;;13.34;100.00;101975.13;5046063;28;20437;-67
2022/07/08 00:25:44;;;;;;;7.88;3.60;;;;;;;13.34;100.00;101990.09;5035631;28;20022;-67
2022/07/08 00:28:09;;;;;;;7.70;3.60;;;;;;;13.21;100.00;101973.84;5022883;28;20029;-67
2022/07/08 00:30:35;;;;;;;20.42;3.78;;;;;;;13.15;100.00;101980.19;5049847;28;20017;-67
2022/07/08 00:33:00;;;;;;;9.95;4.28;;;;;;;13.14;100.00;101983.78;5044314;28;20086;-67
2022/07/08 00:35:26;;;;;;;10.30;3.55;;;;;;;12.99;100.00;101973.69;5033833;28;20026;-67
2022/07/08 00:37:53;;;;;;;11.48;3.33;;;;;;;12.88;100.00;101975.84;5048669;28;20025;-67
2022/07/08 00:40:19;;;;;;;11.18;2.90;;;;;;;12.79;100.00;101981.44;5044703;28;20402;-67
2022/07/08 00:42:48;;;;;;;10.10;3.75;;;;;;;12.81;100.00;101998.06;5024654;28;20033;-67
2022/07/08 00:45:13;;;;;;;9.13;4.18;;;;;;;12.70;100.00;101987.03;5035047;28;20045;-67
2022/07/08 00:47:39;;;;;;;9.43;2.95;;;;;;;12.84;100.00;101995.34;5034937;28;20075;-67
2022/07/08 00:50:05;;;;;;;9.68;3.03;;;;;;;12.84;100.00;101990.06;5046509;28;20025;-67
2022/07/08 00:52:30;;;;;;;7.78;3.42;;;;;;;12.86;100.00;101988.25;5033806;28;20118;-67
2022/07/08 00:54:56;;;;;;;9.57;3.50;;;;;;;12.93;100.00;101992.41;5025438;28;20468;-67
2022/07/08 00:57:21;;;;;;;9.15;3.30;;;;;;;12.97;100.00;102001.06;5013099;28;20866;-67
2022/07/08 00:59:48;;;;;;;6.25;2.85;;;;;;;12.98;100.00;101995.72;5031215;28;20399;-67
2022/07/08 01:02:13;;;;;;;10.32;3.55;;;;;;;12.84;100.00;101976.88;5033807;28;20084;-67
2022/07/08 01:04:39;;;;;;;9.60;3.47;;;;;;;13.05;100.00;102006.91;5031668;28;20790;-67
2022/07/08 01:07:05;;;;;;;7.35;3.30;;;;;;;13.13;100.00;102004.94;5031724;28;20135;-67
2022/07/08 01:09:31;;;;;;;11.20;3.17;;;;;;;13.08;100.00;101994.47;5018027;28;20096;-67
2022/07/08 01:11:56;;;;;;;14.05;4.07;;;;;;;13.08;100.00;101999.75;4999017;28;20079;-67
2022/07/08 01:14:22;;;;;;;9.57;3.10;;;;;;;13.10;100.00;101997.97;5022888;28;20040;-68
2022/07/08 01:16:47;;;;;;;9.85;3.50;;;;;;;12.98;100.00;101966.69;5032447;28;20861;-67
2022/07/08 01:19:12;;;;;;;13.50;3.70;;;;;;;13.16;100.00;101992.47;5011682;28;20095;-67
2022/07/08 01:21:38;;;;;;;8.80;3.63;;;;;;;13.10;100.00;101987.44;5035511;28;20025;-67
2022/07/08 01:24:03;;;;;;;10.18;3.53;;;;;;;13.14;100.00;102002.25;5046561;28;20028;-67
2022/07/08 01:26:29;;;;;;;8.63;3.53;;;;;;;13.16;100.00;101999.53;5048113;28;20036;-67
2022/07/08 01:28:54;;;;;;;6.95;3.00;;;;;;;13.09;100.00;101972.50;5034512;28;20068;-67
2022/07/08 01:31:20;;;;;;;15.70;3.67;;;;;;;13.19;100.00;101992.38;5045249;28;20036;-67
2022/07/08 01:33:45;;;;;;;10.20;3.70;;;;;;;13.12;100.00;101990.00;5051962;28;20028;-67
2022/07/08 01:36:11;;;;;;;12.23;3.45;;;;;;;13.09;100.00;101988.34;5036558;28;20471;-67
2022/07/08 01:38:36;;;;;;;8.55;3.65;;;;;;;12.98;100.00;101993.06;5053920;28;20087;-67
2022/07/08 01:41:02;;;;;;;9.27;3.35;;;;;;;12.91;100.00;101986.28;5046900;28;20025;-67
2022/07/08 01:43:27;;;;;;;14.75;3.47;;;;;;;12.89;100.00;101988.13;5031627;28;20087;-67
2022/07/08 01:45:53;;;;;;;7.43;3.00;;;;;;;12.86;100.00;101998.78;5033127;28;20026;-67
2022/07/08 01:48:18;;;;;;;11.27;3.28;;;;;;;12.81;100.00;101995.44;5043531;28;20035;-67
2022/07/08 01:50:43;;;;;;;6.78;3.20;;;;;;;12.71;100.00;101980.81;5037082;28;20079;-67
2022/07/08 01:53:09;;;;;;;8.82;3.90;;;;;;;12.70;100.00;101984.41;5038028;28;20124;-67
2022/07/08 01:55:34;;;;;;;7.45;3.30;;;;;;;12.61;100.00;101977.63;5001948;28;20041;-67
2022/07/08 01:58:01;;;;;;;7.50;3.55;;;;;;;12.47;100.00;101969.31;5000688;28;20041;-67
2022/07/08 02:00:27;;;;;;;8.13;3.90;;;;;;;12.54;100.00;101981.38;5012093;28;20043;-68
2022/07/08 02:02:52;;;;;;;9.32;3.38;;;;;;;12.39;100.00;101970.50;5024475;28;20044;-67
2022/07/08 02:05:17;;;;;;;10.88;3.13;;;;;;;12.51;100.00;101991.16;5046968;28;20029;-67
2022/07/08 02:07:43;;;;;;;10.85;3.95;;;;;;;12.46;100.00;101993.09;5047146;28;20070;-67
2022/07/08 02:10:09;;;;;;;11.10;3.42;;;;;;;12.37;100.00;102002.16;5033422;28;20101;-67
2022/07/08 02:12:35;;;;;;;10.38;3.92;;;;;;;12.28;100.00;101999.81;5040565;28;20022;-67
2022/07/08 02:15:02;;;;;;;8.07;3.45;;;;;;;12.17;100.00;101994.03;5028217;28;20024;-67
2022/07/08 02:17:41;;;;;;;6.57;3.33;;;;;;;11.97;100.00;101967.41;5039431;28;20029;-67
2022/07/08 02:20:11;;;;;;;7.30;3.15;;;;;;;12.09;100.00;101996.91;5026356;28;20025;-67
2022/07/08 02:22:37;;;;;;;7.22;3.47;;;;;;;12.03;100.00;101991.81;5040542;28;20029;-66
2022/07/08 02:25:04;;;;;;;8.75;3.85;;;;;;;11.97;100.00;101996.41;5031826;28;20403;-66
2022/07/08 02:27:29;;;;;;;13.15;4.15;;;;;;;11.81;100.00;101987.25;5035903;28;20072;-67
2022/07/08 02:29:54;;;;;;;21.95;4.38;;;;;;;11.63;100.00;101983.34;5036790;28;20036;-66
2022/07/08 02:32:20;;;;;;;12.50;3.67;;;;;;;11.26;100.00;101937.03;5036939;28;20103;-66
2022/07/08 02:34:45;;;;;;;7.45;3.30;;;;;;;11.52;100.00;101983.66;5033863;28;20029;-67
2022/07/08 02:37:11;;;;;;;8.73;4.00;;;;;;;11.55;100.00;101994.13;5043692;28;20494;-66
2022/07/08 02:39:36;;;;;;;6.35;3.35;;;;;;;11.24;100.00;101954.63;5023788;28;20101;-66
2022/07/08 02:42:02;;;;;;;7.53;3.83;;;;;;;11.42;100.00;101991.88;5030451;28;20049;-66
2022/07/08 02:44:28;;;;;;;8.55;3.60;;;;;;;11.32;100.00;101985.13;5031425;28;20510;-66
2022/07/08 02:46:53;;;;;;;8.82;3.92;;;;;;;11.15;100.00;101973.28;5041827;28;20032;-66
2022/07/08 02:49:19;;;;;;;7.10;3.42;;;;;;;11.24;100.00;101990.59;5040680;28;20692;-66
2022/07/08 02:51:44;;;;;;;9.93;3.28;;;;;;;11.14;100.00;101978.59;5025189;28;20040;-66
2022/07/08 02:54:09;;;;;;;9.65;3.47;;;;;;;11.13;100.00;101990.88;5034509;28;20839;-67
2022/07/08 02:56:35;;;;;;;9.18;3.60;;;;;;;10.99;100.00;101995.66;5028524;28;20025;-67
2022/07/08 02:59:01;;;;;;;8.48;3.67;;;;;;;10.85;100.00;101987.25;5022590;28;20025;-67
2022/07/08 03:01:26;;;;;;;6.70;3.28;;;;;;;10.80;100.00;101983.88;5031420;28;20084;-67
2022/07/08 03:03:52;;;;;;;9.68;4.10;;;;;;;10.84;100.00;101996.06;5032186;28;20460;-67
2022/07/08 03:06:17;;;;;;;10.45;4.28;;;;;;;10.76;100.00;101987.50;5033159;28;20527;-67
2022/07/08 03:08:43;;;;;;;6.38;3.55;;;;;;;10.53;100.00;101958.28;5051615;28;20025;-67
2022/07/08 03:11:09;;;;;;;9.95;3.80;;;;;;;10.69;100.00;101980.66;5040299;28;20029;-67
2022/07/08 03:13:38;;;;;;;8.35;3.58;;;;;;;10.71;100.00;101998.09;5047355;28;20040;-68
2022/07/08 03:16:04;;;;;;;13.18;4.32;;;;;;;10.58;100.00;101987.94;5039440;28;20025;-67
2022/07/08 03:18:33;;;;;;;7.57;3.95;;;;;;;10.42;100.00;101976.06;5049947;28;20032;-67
2022/07/08 03:20:59;;;;;;;10.88;3.90;;;;;;;10.53;100.00;101992.47;5052420;28;20040;-67
2022/07/08 03:23:24;;;;;;;9.45;3.42;;;;;;;10.48;100.00;101997.81;5015399;28;20029;-67
2022/07/08 03:25:50;;;;;;;18.08;4.78;;;;;;;10.47;100.00;101995.25;4993617;28;20918;-67
2022/07/08 03:28:15;;;;;;;11.32;4.40;;;;;;;10.39;100.00;101981.41;5023146;28;20029;-67
2022/07/08 03:30:41;;;;;;;11.73;4.75;;;;;;;10.24;100.00;101951.97;5030695;28;20025;-67
2022/07/08 03:33:06;;;;;;;9.95;4.45;;;;;;;10.48;100.00;102002.19;5030829;28;20488;-67
2022/07/08 03:35:32;;;;;;;8.95;3.95;;;;;;;10.42;100.00;102007.63;5045835;28;20487;-67
2022/07/08 03:37:57;;;;;;;8.00;4.07;;;;;;;10.36;100.00;101992.88;5032042;28;20032;-67
2022/07/08 03:43:06;;;;;;;10.85;4.18;;;;;;;10.36;100.00;102007.75;5015788;28;20036;-68
2022/07/08 03:45:32;;;;;;;7.85;4.13;;;;;;;10.34;100.00;102009.56;5031462;28;20037;-67
2022/07/08 03:47:57;;;;;;;12.40;5.05;;;;;;;10.27;100.00;102009.69;5041609;28;20408;-67
2022/07/08 03:50:23;;;;;;;9.23;4.57;;;;;;;10.24;100.00;101999.25;5022609;28;20021;-67
2022/07/08 03:52:48;;;;;;;8.63;4.20;;;;;;;10.34;100.00;102010.44;5016486;28;20075;-67
2022/07/08 03:55:14;;;;;;;10.38;4.43;;;;;;;10.34;100.00;102004.31;5019377;28;20034;-67
2022/07/08 03:57:39;;;;;;;7.28;3.67;;;;;;;10.39;100.00;102015.56;5015623;28;20101;-67
2022/07/08 04:00:07;;;;;;;8.05;4.07;;;;;;;10.32;100.00;102016.59;5036585;28;20017;-67
2022/07/08 04:02:33;;;;;;;11.82;4.97;;;;;;;10.35;100.00;102016.53;5032102;28;20025;-67
2022/07/08 04:04:58;;;;;;;17.13;4.60;;;;;;;10.34;100.00;102018.31;5046088;28;20082;-67
2022/07/08 04:07:24;;;;;;;9.68;4.70;;;;;;;10.38;100.00;102025.22;5030804;28;20038;-67
2022/07/08 04:09:49;;;;;;;8.75;4.60;;;;;;;10.43;100.00;102025.13;5030834;28;20024;-67
2022/07/08 04:12:14;;;;;;;11.90;4.65;;;;;;;10.51;100.00;102029.28;5025723;28;20491;-67
2022/07/08 04:14:40;;;;;;;11.82;5.10;;;;;;;10.51;100.00;102007.41;5045671;28;20046;-68
2022/07/08 04:17:05;;;;;;;13.10;4.47;;;;;;;10.66;100.00;102028.06;5042779;28;20025;-67
2022/07/08 04:19:30;;;;;;;9.88;5.15;;;;;;;10.67;100.00;102019.28;5041540;28;20101;-67
2022/07/08 04:21:56;;;;;;;13.48;5.18;;;;;;;10.71;100.00;102039.34;5052189;28;20025;-67
2022/07/08 04:24:21;;;;;;;17.10;5.18;;;;;;;10.74;100.00;102037.50;5053844;28;20093;-67
2022/07/08 04:26:46;;;;;;;8.40;3.97;;;;;;;10.72;100.00;102018.25;5037065;28;20045;-67
2022/07/08 04:29:12;;;;;;;9.80;4.53;;;;;;;10.85;100.00;102026.69;5052332;28;20087;-67
2022/07/08 04:31:38;;;;;;;12.57;5.22;;;;;;;10.83;100.00;102007.47;5041108;28;20025;-68
2022/07/08 04:34:03;;;;;;;14.35;5.40;;;;;;;11.04;100.00;102035.00;5037858;28;20464;-67
2022/07/08 04:36:28;;;;;;;17.83;5.45;;;;;;;11.06;100.00;102035.81;5031333;28;20091;-67
2022/07/08 04:38:54;;;;;;;13.63;5.32;;;;;;;11.11;100.00;102034.81;5034796;28;20029;-67
2022/07/08 04:41:19;;;;;;;12.60;4.68;;;;;;;11.14;100.00;102039.97;5043208;28;20364;-67
2022/07/08 04:43:45;;;;;;;14.80;4.93;;;;;;;11.26;100.00;102047.53;5051348;28;20101;-67
2022/07/08 04:46:11;;;;;;;15.05;5.22;;;;;;;11.33;100.00;102040.34;5045318;28;20032;-67
2022/07/08 04:48:36;;;;;;;9.88;4.57;;;;;;;11.37;100.00;102033.22;5041627;28;20480;-67
2022/07/08 04:51:02;;;;;;;12.23;4.50;;;;;;;11.47;100.00;102035.56;5041894;28;20070;-68
2022/07/08 04:53:27;;;;;;;13.82;4.68;;;;;;;11.52;100.00;102032.81;5033316;28;20029;-67
2022/07/08 04:55:53;;;;;;;9.18;4.07;;;;;;;11.57;100.00;102025.66;5045183;28;20016;-68
2022/07/08 04:58:18;;;;;;;12.93;4.10;;;;;;;11.61;100.00;102022.03;5044528;28;20032;-68
2022/07/08 05:00:43;;;;;;;15.02;5.28;;;;;;;11.68;100.00;102023.56;5042675;28;20037;-67
2022/07/08 05:03:09;;;;;;;11.95;4.63;;;;;;;11.78;100.00;102031.22;5034720;28;20070;-67
2022/07/08 05:05:34;;;;;;;10.70;4.55;;;;;;;11.89;100.00;102023.00;5030429;28;20025;-67
2022/07/08 05:08:00;;;;;;;11.18;5.13;;;;;;;11.90;100.00;102018.56;5029187;28;20145;-67
2022/07/08 05:10:26;;;;;;;12.98;5.10;;;;;;;11.76;100.00;101990.03;5031638;28;21662;-67
2022/07/08 05:12:52;;;;;;;9.75;4.03;;;;;;;12.08;100.00;102031.19;5043911;28;20049;-67
2022/07/08 05:15:18;;;;;;;15.48;4.22;;;;;;;12.13;100.00;102024.88;5053562;28;20479;-67
2022/07/08 05:17:44;;;;;;;8.65;4.38;;;;;;;12.17;100.00;102023.00;5039041;28;20053;-67
2022/07/08 05:20:10;;;;;;;11.05;4.45;;;;;;;12.27;100.00;102025.31;5032812;28;20028;-67
2022/07/08 05:22:36;;;;;;;13.52;4.57;;;;;;;12.41;100.00;102038.06;5038421;28;20029;-67
2022/07/08 05:25:03;;;;;;;11.10;3.88;;;;;;;12.48;100.00;102029.06;5048336;28;20033;-68
2022/07/08 05:27:29;;;;;;;14.98;4.68;;;;;;;12.57;100.00;102038.47;5041305;28;20040;-67
2022/07/08 05:29:54;;;;;;;15.32;4.88;;;;;;;12.57;100.00;102026.13;5049998;28;20033;-67
2022/07/08 05:32:19;;;;;;;9.13;4.43;;;;;;;12.68;100.00;102031.91;5032499;28;20388;-67
2022/07/08 05:34:45;;;;;;;8.75;4.30;;;;;;;12.50;100.00;101992.09;5032644;28;20060;-66
2022/07/08 05:37:11;;;;;;;11.27;4.65;;;;;;;12.89;100.00;102035.63;5032237;28;20112;-66
2022/07/08 05:39:38;;;;;;;12.18;4.85;;;;;;;13.04;100.00;102050.94;5028690;28;20026;-66
2022/07/08 05:42:04;;;;;;;13.52;4.20;;;;;;;13.08;100.00;102047.25;5024153;28;20060;-67
2022/07/08 05:44:29;;;;;;;9.45;3.85;;;;;;;13.17;100.00;102062.84;5015217;28;20050;-67
2022/07/08 05:46:54;;;;;;;11.25;4.15;;;;;;;13.23;100.00;102059.13;5031532;28;20036;-67
2022/07/08 05:49:20;;;;;;;9.27;4.15;;;;;;;13.31;100.00;102057.94;5022316;28;20113;-68
2022/07/08 05:51:45;;;;;;;8.60;4.15;;;;;;;13.48;100.00;102061.78;5017166;28;20030;-67
2022/07/08 05:54:11;;;;;;;10.07;3.42;;;;;;;13.60;100.00;102074.53;5026873;28;20021;-67
2022/07/08 05:56:36;;;;;;;10.63;3.72;;;;;;;13.58;100.00;102057.91;5025190;28;20479;-67
2022/07/08 05:59:02;;;;;;;12.13;3.17;;;;;;;13.74;100.00;102096.03;5033066;28;20037;-67
2022/07/08 06:01:27;;;;;;;14.30;3.95;;;;;;;13.81;100.00;102090.50;5036248;28;20025;-67
2022/07/08 06:03:52;;;;;;;8.38;3.72;;;;;;;13.89;100.00;102092.81;5033141;28;20033;-67
2022/07/08 06:06:18;;;;;;;11.30;3.67;;;;;;;13.88;100.00;102085.84;5044486;28;20059;-67
2022/07/08 06:08:43;;;;;;;9.57;3.83;;;;;;;13.95;100.00;102089.13;5019395;28;20021;-67
2022/07/08 06:11:09;;;;;;;6.72;3.53;;;;;;;14.10;100.00;102105.25;5032573;28;20025;-67
2022/07/08 06:13:34;;;;;;;12.18;3.10;;;;;;;14.09;100.00;102092.13;5048712;28;20052;-67
2022/07/08 06:15:59;;;;;;;9.82;3.72;;;;;;;14.12;100.00;102087.56;5038316;28;20055;-67
2022/07/08 06:18:25;;;;;;;9.98;3.75;;;;;;;14.18;100.00;102087.34;5022820;28;20033;-76
2022/07/08 06:20:50;;;;;;;9.68;3.70;;;;;;;14.25;100.00;102098.53;5029402;28;20419;-67
2022/07/08 06:23:16;;;;;;;9.90;3.97;;;;;;;14.41;100.00;102112.06;5020052;28;20052;-67
2022/07/08 06:25:41;;;;;;;11.25;3.58;;;;;;;14.44;100.00;102115.44;5032451;28;20044;-67
2022/07/08 06:28:06;;;;;;;9.95;3.70;;;;;;;14.26;100.00;102077.31;5036093;28;20048;-67
2022/07/08 06:30:32;;;;;;;6.63;4.03;;;;;;;14.57;100.00;102121.13;5037109;28;20036;-67
2022/07/08 06:32:59;;;;;;;8.27;2.90;;;;;;;14.48;100.00;102101.19;5029321;28;20059;-67
2022/07/08 06:35:28;;;;;;;10.57;4.05;;;;;;;14.49;100.00;102108.22;5032421;28;20040;-67
2022/07/08 06:37:53;;;;;;;6.55;3.45;;;;;;;14.60;100.00;102110.44;5049420;28;20040;-66
2022/07/08 06:40:21;;;;;;;6.40;3.03;;;;;;;14.74;100.00;102124.81;5035979;28;20033;-67
2022/07/08 06:42:49;;;;;;;11.27;3.92;;;;;;;14.76;100.00;102130.06;5020140;28;20021;-68
2022/07/08 06:45:15;;;;;;;10.85;3.67;;;;;;;14.70;100.00;102123.22;5036203;28;20035;-67
2022/07/08 06:47:41;;;;;;;7.55;3.00;;;;;;;14.72;100.00;102115.22;5026700;28;20029;-67
2022/07/08 06:50:08;;;;;;;9.57;3.72;;;;;;;14.65;100.00;102087.28;5018857;28;20361;-67
2022/07/08 06:52:34;;;;;;;6.72;3.03;;;;;;;14.93;100.00;102116.16;5043549;28;20025;-66
2022/07/08 06:54:59;;;;;;;10.45;3.53;;;;;;;14.98;100.00;102128.28;5048309;28;20025;-67
2022/07/08 06:57:25;;;;;;;6.95;3.03;;;;;;;14.99;100.00;102114.13;5038712;28;20029;-68
2022/07/08 06:59:51;;;;;;;8.10;3.55;;;;;;;14.98;100.00;102132.69;5043914;28;20029;-67
2022/07/08 07:02:16;;;;;;;14.00;3.70;;;;;;;14.94;100.00;102120.53;5031332;28;20025;-67
2022/07/08 07:04:42;;;;;;;8.32;3.35;;;;;;;14.96;100.00;102116.91;5026220;28;20034;-67
2022/07/08 07:07:07;;;;;;;9.18;3.80;;;;;;;15.04;100.00;102120.06;5030506;28;20049;-67
2022/07/08 07:09:32;;;;;;;13.90;3.78;;;;;;;15.07;100.00;102113.81;5031664;28;20034;-67
2022/07/08 07:11:58;;;;;;;12.60;4.43;;;;;;;15.17;100.00;102112.50;5038452;28;20033;-67
2022/07/08 07:14:23;;;;;;;9.20;3.70;;;;;;;15.17;100.00;102104.56;5044828;28;20033;-67
2022/07/08 07:16:49;;;;;;;7.25;2.95;;;;;;;15.29;100.00;102115.50;5033466;28;20434;-68
2022/07/08 07:19:14;;;;;;;17.13;3.33;;;;;;;15.30;100.00;102116.38;5025308;28;20037;-67
2022/07/08 07:21:39;;;;;;;17.48;3.60;;;;;;;15.39;100.00;102115.09;5017002;28;20037;-67
2022/07/08 07:24:05;;;;;;;11.80;4.07;;;;;;;15.55;100.00;102125.00;5030950;28;20049;-67
2022/07/08 07:26:31;;;;;;;13.10;3.42;;;;;;;15.56;100.00;102121.44;5030684;28;20026;-66
2022/07/08 07:28:56;;;;;;;8.07;3.58;;;;;;;15.66;100.00;102121.91;5030964;28;20022;-67
2022/07/08 07:31:21;;;;;;;14.57;3.88;;;;;;;15.62;100.00;102120.28;5030415;28;20025;-67
2022/07/08 07:33:47;;;;;;;7.65;3.67;;;;;;;15.63;100.00;102125.53;5023306;28;20398;-68
2022/07/08 07:36:12;;;;;;;6.05;3.22;;;;;;;15.63;100.00;102120.25;5026392;28;20025;-68
2022/07/08 07:38:38;;;;;;;6.63;3.95;;;;;;;15.66;100.00;102135.16;5031280;28;20491;-66
2022/07/08 07:41:03;;;;;;;11.60;3.90;;;;;;;15.60;100.00;102127.47;5023866;28;20078;-66
2022/07/08 07:43:28;;;;;;;10.98;2.80;;;;;;;15.54;100.00;102133.03;5034733;28;20028;-67
2022/07/08 07:45:54;;;;;;;11.65;3.33;;;;;;;15.56;100.00;102125.88;5037821;28;20032;-67
2022/07/08 07:48:19;;;;;;;7.07;3.63;;;;;;;15.58;100.00;102129.34;5030533;28;20029;-66
2022/07/08 07:50:45;;;;;;;14.07;3.45;;;;;;;15.58;100.00;102124.03;5030693;28;20042;-67
2022/07/08 07:53:10;;;;;;;6.40;3.00;;;;;;;15.61;100.00;102129.19;5030992;28;20025;-66
2022/07/08 07:55:36;;;;;;;10.52;3.88;;;;;;;15.22;100.00;102062.84;5044614;28;20474;-66
2022/07/08 07:58:01;;;;;;;8.32;3.33;;;;;;;15.48;100.00;102096.19;5030251;28;20468;-66
2022/07/08 08:00:27;;;;;;;7.53;3.47;;;;;;;15.78;100.00;102137.28;5011408;28;20109;-67
2022/07/08 08:02:52;;;;;;;7.13;3.35;;;;;;;15.79;100.00;102138.97;5035632;28;20108;-67
2022/07/08 08:05:18;;;;;;;10.00;3.28;;;;;;;15.80;100.00;102130.97;5011828;28;20053;-67
2022/07/08 08:07:43;;;;;;;10.30;2.80;;;;;;;15.88;100.00;102128.00;5022702;28;20431;-67
2022/07/08 08:10:11;;;;;;;9.82;3.17;;;;;;;16.02;100.00;102130.84;5030295;28;20025;-67
2022/07/08 08:12:36;;;;;;;7.10;3.13;;;;;;;16.06;100.00;102136.88;5039784;28;20083;-67
2022/07/08 08:15:02;;;;;;;13.60;3.33;;;;;;;16.14;100.00;102134.75;5048801;28;20104;-67
2022/07/08 08:17:27;;;;;;;10.40;3.00;;;;;;;16.16;100.00;102138.19;5041079;28;20041;-67
2022/07/08 08:19:53;;;;;;;9.98;3.25;;;;;;;16.23;100.00;102129.88;5045366;28;20493;-67
2022/07/08 08:22:18;;;;;;;7.22;2.97;;;;;;;16.34;100.00;102126.75;5031264;28;20060;-66
2022/07/08 08:24:43;;;;;;;9.98;3.35;;;;;;;16.29;100.00;102116.34;5043231;28;20029;-67
2022/07/08 08:27:09;;;;;;;8.77;3.30;;;;;;;16.32;100.00;102118.00;5042510;28;20026;-66
2022/07/08 08:29:34;;;;;;;7.45;3.22;;;;;;;16.57;100.00;102138.97;5030992;28;20053;-66
2022/07/08 08:31:59;;;;;;;12.30;3.45;;;;;;;16.56;100.00;102134.63;5038058;28;20037;-66
2022/07/08 08:34:25;;;;;;;10.30;2.90;;;;;;;16.43;100.00;102109.53;5021028;28;20034;-67
2022/07/08 08:36:50;;;;;;;14.18;3.85;;;;;;;16.58;100.00;102130.09;5028944;28;20037;-67
2022/07/08 08:39:16;;;;;;;9.20;3.08;;;;;;;16.62;100.00;102129.00;5042788;28;20480;-67
2022/07/08 08:41:41;;;;;;;7.18;3.20;;;;;;;16.69;100.00;102126.00;5032832;28;20025;-69
2022/07/08 08:44:07;;;;;;;5.78;2.88;;;;;;;16.75;100.00;102116.88;5045790;28;20022;-68
2022/07/08 08:46:32;;;;;;;8.00;3.47;;;;;;;16.84;100.00;102114.63;5049090;28;20045;-68
2022/07/08 08:48:58;;;;;;;13.40;3.42;;;;;;;16.92;100.00;102114.25;5052021;28;20521;-67
2022/07/08 08:51:24;;;;;;;5.80;2.72;;;;;;;16.98;100.00;102105.97;5044218;28;20021;-68
2022/07/08 08:53:52;;;;;;;10.57;3.38;;;;;;;17.00;100.00;102113.88;5032959;28;20026;-66
2022/07/08 08:56:18;;;;;;;7.47;3.10;;;;;;;17.04;100.00;102116.28;5030666;28;20430;-67
2022/07/08 08:58:46;;;;;;;9.88;3.78;;;;;;;17.11;100.00;102114.19;5014009;28;20034;-67
2022/07/08 09:01:22;;;;;;;10.00;3.22;;;;;;;16.95;100.00;102076.06;5036714;28;20029;-67
2022/07/08 09:03:47;;;;;;;10.25;3.30;;;;;;;17.23;100.00;102098.50;5033707;28;20463;-67
2022/07/08 09:06:13;;;;;;;8.18;2.83;;;;;;;17.34;100.00;102105.91;5035534;28;20040;-68
2022/07/08 09:08:39;;;;;;;8.02;2.90;;;;;;;17.36;100.00;102104.91;5037806;28;20048;-67
2022/07/08 09:11:05;;;;;;;6.32;2.75;;;;;;;17.36;100.00;102110.25;5014566;28;20465;-67
2022/07/08 09:13:31;;;;;;;9.98;2.90;;;;;;;17.35;100.00;102108.50;5018393;28;20044;-68
2022/07/08 09:16:00;;;;;;;4.82;2.40;;;;;;;17.25;100.00;102078.03;5016091;28;20022;-68
2022/07/08 09:18:29;;;;;;;12.60;3.05;;;;;;;17.54;100.00;102118.22;5024954;28;20414;-66
2022/07/08 09:20:55;;;;;;;11.02;2.70;;;;;;;17.63;100.00;102109.78;5032632;28;20030;-67
2022/07/08 09:23:32;;;;;;;9.05;2.58;;;;;;;17.69;100.00;102101.47;5015549;28;20376;-67
2022/07/08 09:26:02;;;;;;;9.18;2.70;;;;;;;17.73;100.00;102097.72;5034035;28;20033;-68
2022/07/08 09:28:33;;;;;;;14.50;2.95;;;;;;;17.68;100.00;102079.34;5017334;28;20045;-67
2022/07/08 09:31:00;;;;;;;10.35;3.33;;;;;;;17.94;100.00;102112.56;5042279;28;20033;-67
2022/07/08 09:33:27;;;;;;;5.75;3.10;;;;;;;17.85;100.00;102118.34;5042989;28;20025;-67
2022/07/08 09:35:53;;;;;;;8.02;3.15;;;;;;;17.57;100.00;102064.91;5019739;28;20395;-66
2022/07/08 09:38:19;;;;;;;8.52;2.72;;;;;;;17.91;100.00;102107.41;5046121;28;20032;-69
2022/07/08 09:40:59;;;;;;;5.95;2.35;;;;;;;17.97;100.00;102107.06;5014767;28;20030;-67
2022/07/08 09:43:25;;;;;;;14.82;2.92;;;;;;;18.12;100.00;102119.53;5032096;28;20025;-69
2022/07/08 09:45:51;;;;;;;7.72;2.95;;;;;;;18.23;100.00;102124.25;5024785;28;20025;-67
2022/07/08 09:48:17;;;;;;;4.78;2.20;;;;;;;18.22;100.00;102118.09;5025927;28;20030;-69
2022/07/08 09:50:44;;;;;;;7.43;2.78;;;;;;;18.08;100.00;102078.06;5042795;28;20380;-67
2022/07/08 09:53:23;;;;;;;7.28;2.40;;;;;;;18.42;100.00;102118.81;5037652;28;20032;-67
2022/07/08 09:55:53;;;;;;;8.57;2.63;;;;;;;18.60;100.00;102116.00;5039644;28;20586;-67
2022/07/08 09:58:21;;;;;;;5.68;2.83;;;;;;;18.59;100.00;102116.09;5017738;28;20071;-67
2022/07/08 10:00:48;;;;;;;9.25;2.85;;;;;;;18.57;100.00;102102.00;5023084;28;20037;-67
2022/07/08 10:03:13;;;;;;;7.68;2.80;;;;;;;18.53;100.00;102063.19;5029553;28;20025;-68
2022/07/08 10:05:40;;;;;;;6.07;2.28;;;;;;;18.84;100.00;102100.44;5031984;28;20598;-68
2022/07/08 10:08:06;;;;;;;7.32;2.95;;;;;;;18.89;100.00;102083.22;5046977;28;20108;-68
2022/07/08 10:10:33;;;;;;;12.95;2.67;;;;;;;18.99;100.00;102086.25;5043612;28;20025;-67
2022/07/08 10:13:00;;;;;;;5.55;2.38;;;;;;;18.84;100.00;102063.13;5037169;28;20029;-67
2022/07/08 10:15:27;;;;;;;5.90;2.90;;;;;;;19.16;100.00;102102.06;5047607;28;20438;-67
2022/07/08 10:17:52;;;;;;;8.98;2.78;;;;;;;19.12;100.00;102097.91;5036437;28;20030;-67
2022/07/08 10:20:20;;;;;;;8.02;2.58;;;;;;;19.02;100.00;102104.72;5047051;28;20391;-67
2022/07/08 10:22:48;;;;;;;6.72;2.60;;;;;;;18.92;100.00;102103.53;5040220;28;20111;-67
2022/07/08 10:25:14;;;;;;;9.70;2.90;;;;;;;19.02;100.00;102098.53;5049993;28;20036;-68
2022/07/08 10:27:39;;;;;;;9.07;2.65;;;;;;;18.99;100.00;102082.72;5052299;28;20033;-67
2022/07/08 10:30:20;;;;;;;7.63;2.38;;;;;;;19.26;100.00;102105.91;5031261;28;20456;-68
2022/07/08 10:32:49;;;;;;;9.55;2.60;;;;;;;19.38;100.00;102097.22;5031290;28;20391;-68
2022/07/08 10:35:19;;;;;;;10.52;2.83;;;;;;;19.57;100.00;102110.31;5027980;28;20119;-67
2022/07/08 10:37:57;;;;;;;7.63;2.65;;;;;;;19.43;100.00;102101.44;5035817;28;20026;-67
2022/07/08 10:40:37;;;;;;;10.13;3.03;;;;;;;19.41;100.00;102100.66;5045187;28;20798;-68
2022/07/08 10:43:18;;;;;;;10.77;3.08;;;;;;;19.45;100.00;102103.06;5025963;28;20034;-67
2022/07/08 10:46:15;;;;;;;11.23;3.08;;;;;;;19.46;100.00;102099.47;5026566;28;20021;-67
2022/07/08 10:48:40;;;;;;;5.43;2.53;;;;;;;19.63;100.00;102095.78;5029681;28;20033;-68
2022/07/08 10:51:06;;;;;;;19.08;5.38;;;;;;;19.79;100.00;102093.88;5047460;28;20415;-68
2022/07/08 10:53:51;;;;;;;8.75;3.17;;;;;;;19.97;100.00;102090.09;5040503;28;20029;-69
2022/07/08 10:56:44;;;;;;;9.38;2.97;;;;;;;20.13;100.00;102096.16;5024473;28;20456;-68
2022/07/08 10:59:17;;;;;;;120.93;23.15;;;;;;;20.34;100.00;102100.19;5038251;28;20447;-68
2022/07/08 11:01:49;;;;;;;7.47;2.30;;;;;;;20.58;100.00;102087.03;5024955;28;20170;-70
2022/07/08 11:04:23;;;;;;;6.43;2.00;;;;;;;20.85;100.00;102087.06;5026242;28;20045;-68
2022/07/08 11:06:48;;;;;;;3.63;2.08;;;;;;;20.92;100.00;102091.03;5038148;28;20414;-68
2022/07/08 11:09:20;;;;;;;9.65;3.60;;;;;;;20.81;100.00;102082.88;5025868;28;20043;-68
2022/07/08 11:11:45;;;;;;;7.78;2.50;;;;;;;20.93;98.85;102090.09;5036433;28;20032;-67
2022/07/08 11:14:13;;;;;;;7.50;2.53;;;;;;;21.03;100.00;102077.81;5037346;28;20116;-67